createdAt,value
2023-04-02T00:00:43.749Z,1081.00
2023-04-02T00:01:43.887Z,1078.00
2023-04-02T00:02:43.869Z,1075.00
2023-04-02T00:03:44.014Z,1075.00
2023-04-02T00:04:43.942Z,1077.00
2023-04-02T00:05:43.979Z,1079.00
2023-04-02T00:06:44.047Z,1080.00
2023-04-02T00:07:44.085Z,1079.00
2023-04-02T00:08:44.122Z,1085.00
2023-04-02T00:09:44.177Z,1084.00
2023-04-02T00:10:44.213Z,1081.00
2023-04-02T00:11:44.263Z,1082.00
2023-04-02T00:12:44.312Z,1085.00
2023-04-02T00:13:44.356Z,1086.00
2023-04-02T00:14:44.384Z,1082.00
2023-04-02T00:15:44.428Z,1082.00
2023-04-02T00:16:44.509Z,1080.00
2023-04-02T00:17:44.524Z,1071.00
2023-04-02T00:18:44.568Z,1069.00
2023-04-02T00:19:44.612Z,1072.00
2023-04-02T00:20:44.671Z,1076.00
2023-04-02T00:21:44.711Z,1076.00
2023-04-02T00:22:44.770Z,1076.00
2023-04-02T00:23:44.832Z,1079.00
2023-04-02T00:24:44.893Z,1080.00
2023-04-02T00:25:44.929Z,1078.00
2023-04-02T00:26:44.975Z,1077.00
2023-04-02T00:27:45.024Z,1075.00
2023-04-02T00:28:45.080Z,1078.00
2023-04-02T00:29:45.108Z,1078.00
2023-04-02T00:30:45.174Z,1076.00
2023-04-02T00:31:45.242Z,1072.00
2023-04-02T00:32:45.287Z,1072.00
2023-04-02T00:33:45.317Z,1074.00
2023-04-02T00:34:45.367Z,1073.00
2023-04-02T00:35:45.430Z,1074.00
2023-04-02T00:36:45.475Z,1078.00
2023-04-02T00:37:45.542Z,1079.00
2023-04-02T00:38:46.817Z,1081.00
2023-04-02T00:39:45.828Z,1081.00
2023-04-02T00:40:45.876Z,1085.00
2023-04-02T00:41:45.934Z,1082.00
2023-04-02T00:42:45.987Z,1083.00
2023-04-02T00:43:46.027Z,1083.00
2023-04-02T00:44:46.076Z,1082.00
2023-04-02T00:45:46.134Z,1078.00
2023-04-02T00:46:46.177Z,1082.00
2023-04-02T00:47:46.270Z,1080.00
2023-04-02T00:48:46.283Z,1079.00
2023-04-02T00:49:46.334Z,1078.00
2023-04-02T00:50:46.378Z,1077.00
2023-04-02T00:51:46.445Z,1078.00
2023-04-02T00:52:46.520Z,1083.00
2023-04-02T00:53:46.540Z,1074.00
2023-04-02T00:54:46.594Z,1071.00
2023-04-02T00:55:46.652Z,1068.00
2023-04-02T00:56:46.715Z,1066.00
2023-04-02T00:57:46.774Z,1070.00
2023-04-02T00:58:46.820Z,1075.00
2023-04-02T00:59:46.872Z,1070.00
2023-04-02T01:00:46.925Z,1070.00
2023-04-02T01:01:47.072Z,1068.00
2023-04-02T01:02:47.156Z,1069.00
2023-04-02T01:03:47.114Z,1068.00
2023-04-02T01:04:47.160Z,1067.00
2023-04-02T01:05:47.220Z,1069.00
2023-04-02T01:06:47.271Z,1073.00
2023-04-02T01:07:47.361Z,1073.00
2023-04-02T01:08:47.410Z,1064.00
2023-04-02T01:09:47.444Z,1074.00
2023-04-02T01:10:47.509Z,1071.00
2023-04-02T01:11:47.580Z,1070.00
2023-04-02T01:12:47.635Z,1070.00
2023-04-02T01:13:47.697Z,1069.00
2023-04-02T01:14:47.767Z,1071.00
2023-04-02T01:15:47.834Z,1073.00
2023-04-02T01:16:47.862Z,1070.00
2023-04-02T01:17:47.927Z,1065.00
2023-04-02T01:18:47.977Z,1071.00
2023-04-02T01:19:48.040Z,1071.00
2023-04-02T01:20:48.107Z,1073.00
2023-04-02T01:21:48.153Z,1069.00
2023-04-02T01:22:48.272Z,1072.00
2023-04-02T01:23:48.265Z,1071.00
2023-04-02T01:24:48.317Z,1069.00
2023-04-02T01:25:48.382Z,1066.00
2023-04-02T01:26:48.443Z,1062.00
2023-04-02T01:27:48.500Z,1065.00
2023-04-02T01:28:48.567Z,1061.00
2023-04-02T01:29:48.624Z,1060.00
2023-04-02T01:30:48.665Z,1064.00
2023-04-02T01:31:48.813Z,1066.00
2023-04-02T01:32:48.783Z,1069.00
2023-04-02T01:33:48.845Z,1069.00
2023-04-02T01:34:48.904Z,1070.00
2023-04-02T01:35:49.002Z,1071.00
2023-04-02T01:36:49.017Z,1070.00
2023-04-02T01:37:49.072Z,1072.00
2023-04-02T01:38:49.133Z,1071.00
2023-04-02T01:39:49.191Z,1071.00
2023-04-02T01:40:49.250Z,1070.00
2023-04-02T01:41:49.324Z,1062.00
2023-04-02T01:42:49.386Z,1060.00
2023-04-02T01:43:49.434Z,1061.00
2023-04-02T01:44:49.495Z,1059.00
2023-04-02T01:45:49.550Z,1058.00
2023-04-02T01:46:49.696Z,1055.00
2023-04-02T01:47:49.697Z,1056.00
2023-04-02T01:48:49.730Z,1058.00
2023-04-02T01:49:49.789Z,1065.00
2023-04-02T01:50:49.865Z,1064.00
2023-04-02T01:51:49.907Z,1061.00
2023-04-02T01:52:49.983Z,1062.00
2023-04-02T01:53:50.034Z,1060.00
2023-04-02T01:54:50.097Z,1056.00
2023-04-02T01:55:50.145Z,1051.00
2023-04-02T01:56:50.231Z,1054.00
2023-04-02T01:57:50.278Z,1053.00
2023-04-02T01:58:50.328Z,1052.00
2023-04-02T01:59:50.395Z,1056.00
2023-04-02T02:00:50.505Z,1056.00
2023-04-02T02:01:50.520Z,1055.00
2023-04-02T02:02:50.612Z,1052.00
2023-04-02T02:03:50.634Z,1053.00
2023-04-02T02:04:50.709Z,1054.00
2023-04-02T02:05:50.879Z,1056.00
2023-04-02T02:06:50.836Z,1050.00
2023-04-02T02:07:50.900Z,1049.00
2023-04-02T02:08:50.949Z,1050.00
2023-04-02T02:09:51.032Z,1051.00
2023-04-02T02:10:51.071Z,1053.00
2023-04-02T02:11:51.135Z,1055.00
2023-04-02T02:12:51.217Z,1054.00
2023-04-02T02:13:51.260Z,1054.00
2023-04-02T02:14:51.337Z,1054.00
2023-04-02T02:15:51.387Z,1055.00
2023-04-02T02:16:51.455Z,1054.00
2023-04-02T02:17:51.530Z,1050.00
2023-04-02T02:18:51.579Z,1052.00
2023-04-02T02:19:51.651Z,1051.00
2023-04-02T02:20:51.703Z,1054.00
2023-04-02T02:21:51.768Z,1055.00
2023-04-02T02:22:51.831Z,1058.00
2023-04-02T02:23:51.894Z,1057.00
2023-04-02T02:24:51.954Z,1059.00
2023-04-02T02:25:52.011Z,1057.00
2023-04-02T02:26:52.076Z,1057.00
2023-04-02T02:27:52.141Z,1056.00
2023-04-02T02:28:52.197Z,1055.00
2023-04-02T02:29:52.269Z,1057.00
2023-04-02T02:30:52.333Z,1055.00
2023-04-02T02:31:52.431Z,1056.00
2023-04-02T02:32:52.516Z,1056.00
2023-04-02T02:33:52.531Z,1056.00
2023-04-02T02:34:52.584Z,1051.00
2023-04-02T02:35:52.759Z,1052.00
2023-04-02T02:36:52.708Z,1055.00
2023-04-02T02:37:52.772Z,1056.00
2023-04-02T02:38:54.347Z,1052.00
2023-04-02T02:39:52.898Z,1052.00
2023-04-02T02:40:52.973Z,1052.00
2023-04-02T02:41:53.020Z,1052.00
2023-04-02T02:42:53.083Z,1054.00
2023-04-02T02:43:53.153Z,1056.00
2023-04-02T02:44:53.213Z,1055.00
2023-04-02T02:45:53.298Z,1053.00
2023-04-02T02:46:53.344Z,1050.00
2023-04-02T02:47:53.430Z,1050.00
2023-04-02T02:48:53.453Z,1050.00
2023-04-02T02:49:53.509Z,1048.00
2023-04-02T02:50:53.586Z,1049.00
2023-04-02T02:51:53.639Z,1049.00
2023-04-02T02:52:53.708Z,1055.00
2023-04-02T02:53:53.767Z,1054.00
2023-04-02T02:54:53.827Z,1050.00
2023-04-02T02:55:53.900Z,1048.00
2023-04-02T02:56:53.992Z,1048.00
2023-04-02T02:57:54.026Z,1045.00
2023-04-02T02:58:54.095Z,1040.00
2023-04-02T02:59:54.154Z,1039.00
2023-04-02T03:00:54.227Z,1043.00
2023-04-02T03:01:54.282Z,1043.00
2023-04-02T03:02:54.427Z,1040.00
2023-04-02T03:03:54.552Z,1037.00
2023-04-02T03:04:54.463Z,1037.00
2023-04-02T03:05:54.535Z,1038.00
2023-04-02T03:06:54.600Z,1041.00
2023-04-02T03:07:54.659Z,1043.00
2023-04-02T03:08:54.712Z,1044.00
2023-04-02T03:09:54.769Z,1045.00
2023-04-02T03:10:54.841Z,1047.00
2023-04-02T03:11:54.916Z,1047.00
2023-04-02T03:12:54.984Z,1049.00
2023-04-02T03:13:55.041Z,1049.00
2023-04-02T03:14:55.110Z,1048.00
2023-04-02T03:15:55.216Z,1049.00
2023-04-02T03:16:55.243Z,1043.00
2023-04-02T03:17:55.336Z,1048.00
2023-04-02T03:18:55.357Z,1051.00
2023-04-02T03:19:55.415Z,1051.00
2023-04-02T03:20:55.461Z,1049.00
2023-04-02T03:21:55.511Z,1045.00
2023-04-02T03:22:55.554Z,1045.00
2023-04-02T03:23:55.597Z,1048.00
2023-04-02T03:24:55.647Z,1048.00
2023-04-02T03:25:55.724Z,1043.00
2023-04-02T03:26:55.776Z,1039.00
2023-04-02T03:27:55.816Z,1045.00
2023-04-02T03:28:55.895Z,1039.00
2023-04-02T03:29:55.936Z,1037.00
2023-04-02T03:30:56.010Z,1036.00
2023-04-02T03:31:56.052Z,1035.00
2023-04-02T03:32:56.144Z,1040.00
2023-04-02T03:33:56.190Z,1036.00
2023-04-02T03:34:56.252Z,1034.00
2023-04-02T03:35:56.389Z,1038.00
2023-04-02T03:36:56.394Z,1039.00
2023-04-02T03:37:56.453Z,1041.00
2023-04-02T03:38:56.520Z,1040.00
2023-04-02T03:39:56.591Z,1042.00
2023-04-02T03:40:56.625Z,1046.00
2023-04-02T03:41:56.691Z,1042.00
2023-04-02T03:42:56.720Z,1040.00
2023-04-02T03:43:56.756Z,1042.00
2023-04-02T03:44:56.803Z,1035.00
2023-04-02T03:45:56.867Z,1037.00
2023-04-02T03:46:56.929Z,1033.00
2023-04-02T03:47:57.010Z,1036.00
2023-04-02T03:48:57.041Z,1038.00
2023-04-02T03:49:57.089Z,1037.00
2023-04-02T03:50:57.153Z,1036.00
2023-04-02T03:51:57.216Z,1032.00
2023-04-02T03:52:57.276Z,1037.00
2023-04-02T03:53:57.339Z,1039.00
2023-04-02T03:54:57.389Z,1035.00
2023-04-02T03:55:57.448Z,1036.00
2023-04-02T03:56:57.567Z,1037.00
2023-04-02T03:57:57.575Z,1035.00
2023-04-02T03:58:57.631Z,1037.00
2023-04-02T03:59:57.705Z,1035.00
2023-04-02T04:00:57.757Z,1040.00
2023-04-02T04:01:57.838Z,1038.00
2023-04-02T04:02:57.927Z,1039.00
2023-04-02T04:03:58.014Z,1037.00
2023-04-02T04:04:58.015Z,1032.00
2023-04-02T04:05:58.081Z,1032.00
2023-04-02T04:06:58.137Z,1032.00
2023-04-02T04:07:58.225Z,1036.00
2023-04-02T04:08:58.275Z,1041.00
2023-04-02T04:09:58.337Z,1041.00
2023-04-02T04:10:58.442Z,1038.00
2023-04-02T04:11:58.451Z,1038.00
2023-04-02T04:12:58.815Z,1038.00
2023-04-02T04:13:58.552Z,1036.00
2023-04-02T04:14:58.629Z,1029.00
2023-04-02T04:15:58.693Z,1034.00
2023-04-02T04:16:58.727Z,1033.00
2023-04-02T04:17:58.757Z,1033.00
2023-04-02T04:18:58.785Z,1034.00
2023-04-02T04:19:58.848Z,1029.00
2023-04-02T04:20:58.893Z,1028.00
2023-04-02T04:21:58.936Z,1029.00
2023-04-02T04:22:58.997Z,1028.00
2023-04-02T04:23:59.023Z,1028.00
2023-04-02T04:24:59.081Z,1032.00
2023-04-02T04:25:59.130Z,1029.00
2023-04-02T04:26:59.319Z,1026.00
2023-04-02T04:27:59.261Z,1028.00
2023-04-02T04:28:59.302Z,1030.00
2023-04-02T04:29:59.352Z,1035.00
2023-04-02T04:30:59.394Z,1036.00
2023-04-02T04:31:59.503Z,1037.00
2023-04-02T04:32:59.531Z,1038.00
2023-04-02T04:33:59.580Z,1035.00
2023-04-02T04:34:59.624Z,1036.00
2023-04-02T04:35:59.651Z,1037.00
2023-04-02T04:36:59.651Z,1037.00
2023-04-02T04:37:59.692Z,1042.00
2023-04-02T04:38:59.712Z,1038.00
2023-04-02T04:39:59.749Z,1040.00
2023-04-02T04:40:59.800Z,1038.00
2023-04-02T04:41:59.862Z,1034.00
2023-04-02T04:42:59.917Z,1031.00
2023-04-02T04:43:59.934Z,1027.00
2023-04-02T04:44:59.971Z,1021.00
2023-04-02T04:46:00.074Z,1024.00
2023-04-02T04:47:00.044Z,1024.00
2023-04-02T04:48:00.203Z,1021.00
2023-04-02T04:49:00.154Z,1021.00
2023-04-02T04:50:00.187Z,1023.00
2023-04-02T04:51:00.242Z,1026.00
2023-04-02T04:52:00.301Z,1024.00
2023-04-02T04:53:00.338Z,1020.00
2023-04-02T04:54:00.380Z,1022.00
2023-04-02T04:55:00.426Z,1019.00
2023-04-02T04:56:12.559Z,1023.00
2023-04-02T04:57:01.466Z,1021.00
2023-04-02T04:58:00.463Z,1023.00
2023-04-02T04:59:00.436Z,1023.00
2023-04-02T05:00:00.433Z,1025.00
2023-04-02T05:01:00.427Z,1025.00
2023-04-02T05:02:00.421Z,1024.00
2023-04-02T05:03:00.423Z,1020.00
2023-04-02T05:04:00.417Z,1021.00
2023-04-02T05:05:00.460Z,1017.00
2023-04-02T05:06:00.396Z,1018.00
2023-04-02T05:07:00.407Z,1014.00
2023-04-02T05:08:00.393Z,1013.00
2023-04-02T05:09:00.394Z,1017.00
2023-04-02T05:10:00.388Z,1018.00
2023-04-02T05:11:00.406Z,1022.00
2023-04-02T05:12:00.442Z,1021.00
2023-04-02T05:13:00.468Z,1018.00
2023-04-02T05:14:00.494Z,1015.00
2023-04-02T05:15:00.546Z,1021.00
2023-04-02T05:16:01.434Z,1022.00
2023-04-02T05:17:00.592Z,1022.00
2023-04-02T05:18:00.628Z,1022.00
2023-04-02T05:19:00.634Z,1019.00
2023-04-02T05:20:00.636Z,1021.00
2023-04-02T05:21:00.660Z,1020.00
2023-04-02T05:22:00.669Z,1016.00
2023-04-02T05:23:00.681Z,1014.00
2023-04-02T05:24:00.697Z,1014.00
2023-04-02T05:25:00.718Z,1016.00
2023-04-02T05:26:00.709Z,1012.00
2023-04-02T05:27:00.746Z,1018.00
2023-04-02T05:28:00.741Z,1018.00
2023-04-02T05:29:00.753Z,1018.00
2023-04-02T05:30:01.023Z,1022.00
2023-04-02T05:31:00.875Z,1018.00
2023-04-02T05:32:00.801Z,1017.00
2023-04-02T05:33:00.852Z,1019.00
2023-04-02T05:34:00.814Z,1017.00
2023-04-02T05:35:00.854Z,1017.00
2023-04-02T05:36:00.900Z,1016.00
2023-04-02T05:37:00.884Z,1017.00
2023-04-02T05:38:00.910Z,1015.00
2023-04-02T05:39:00.944Z,1013.00
2023-04-02T05:40:00.988Z,1011.00
2023-04-02T05:41:00.995Z,1010.00
2023-04-02T05:42:01.040Z,1010.00
2023-04-02T05:43:01.073Z,1010.00
2023-04-02T05:44:01.127Z,1013.00
2023-04-02T05:45:01.200Z,1012.00
2023-04-02T05:46:01.197Z,1014.00
2023-04-02T05:47:01.315Z,1020.00
2023-04-02T05:48:01.273Z,1020.00
2023-04-02T05:49:01.314Z,1019.00
2023-04-02T05:50:01.361Z,1016.00
2023-04-02T05:51:01.385Z,1010.00
2023-04-02T05:52:01.399Z,1011.00
2023-04-02T05:53:01.429Z,1010.00
2023-04-02T05:54:01.474Z,1010.00
2023-04-02T05:55:01.511Z,1009.00
2023-04-02T05:56:01.576Z,1010.00
2023-04-02T05:57:01.629Z,1011.00
2023-04-02T05:58:29.437Z,1016.00
2023-04-02T05:59:02.615Z,1015.00
2023-04-02T06:00:01.593Z,1014.00
2023-04-02T06:01:01.598Z,1012.00
2023-04-02T06:02:01.614Z,1016.00
2023-04-02T06:03:01.638Z,1019.00
2023-04-02T06:04:01.625Z,1012.00
2023-04-02T06:05:01.592Z,1009.00
2023-04-02T06:06:01.600Z,1008.00
2023-04-02T06:07:01.587Z,1005.00
2023-04-02T06:08:01.574Z,1002.00
2023-04-02T06:09:01.559Z,1003.00
2023-04-02T06:10:01.579Z,1001.00
2023-04-02T06:11:01.560Z,998.00
2023-04-02T06:12:01.568Z,999.00
2023-04-02T06:13:01.599Z,1002.00
2023-04-02T06:14:01.631Z,1003.00
2023-04-02T06:15:01.659Z,1005.00
2023-04-02T06:16:01.727Z,1003.00
2023-04-02T06:17:01.817Z,1002.00
2023-04-02T06:18:01.875Z,1003.00
2023-04-02T06:19:01.878Z,1005.00
2023-04-02T06:20:01.923Z,1004.00
2023-04-02T06:21:01.950Z,1008.00
2023-04-02T06:22:02.026Z,1011.00
2023-04-02T06:23:02.029Z,1021.00
2023-04-02T06:24:02.075Z,1020.00
2023-04-02T06:25:02.097Z,1017.00
2023-04-02T06:26:02.120Z,1016.00
2023-04-02T06:27:02.160Z,1016.00
2023-04-02T06:28:02.180Z,1016.00
2023-04-02T06:29:02.210Z,1015.00
2023-04-02T06:30:02.251Z,1013.00
2023-04-02T06:31:02.356Z,1010.00
2023-04-02T06:32:02.383Z,1000.00
2023-04-02T06:33:02.494Z,1002.00
2023-04-02T06:34:02.511Z,1005.00
2023-04-02T06:35:02.550Z,1005.00
2023-04-02T06:36:02.623Z,1004.00
2023-04-02T06:37:02.660Z,1004.00
2023-04-02T06:38:02.743Z,1004.00
2023-04-02T06:39:02.852Z,1004.00
2023-04-02T06:40:02.762Z,1003.00
2023-04-02T06:41:02.817Z,1002.00
2023-04-02T06:42:02.868Z,1001.00
2023-04-02T06:43:02.905Z,1003.00
2023-04-02T06:44:02.928Z,1004.00
2023-04-02T06:45:02.953Z,1001.00
2023-04-02T06:46:03.047Z,999.00
2023-04-02T06:47:03.041Z,996.00
2023-04-02T06:48:03.122Z,994.00
2023-04-02T06:49:03.129Z,993.00
2023-04-02T06:50:03.191Z,992.00
2023-04-02T06:51:03.234Z,996.00
2023-04-02T06:52:03.294Z,993.00
2023-04-02T06:53:03.347Z,995.00
2023-04-02T06:54:03.405Z,996.00
2023-04-02T06:55:03.499Z,994.00
2023-04-02T06:56:03.531Z,993.00
2023-04-02T06:57:03.596Z,994.00
2023-04-02T06:58:03.644Z,996.00
2023-04-02T06:59:03.705Z,997.00
2023-04-02T07:00:03.771Z,997.00
2023-04-02T07:01:03.861Z,998.00
2023-04-02T07:02:03.889Z,1001.00
2023-04-02T07:03:04.085Z,1003.00
2023-04-02T07:04:04.006Z,1005.00
2023-04-02T07:05:04.114Z,1001.00
2023-04-02T07:06:04.115Z,994.00
2023-04-02T07:07:04.178Z,997.00
2023-04-02T07:08:04.226Z,1001.00
2023-04-02T07:09:04.313Z,998.00
2023-04-02T07:10:04.331Z,998.00
2023-04-02T07:11:04.383Z,997.00
2023-04-02T07:12:04.465Z,997.00
2023-04-02T07:13:04.502Z,997.00
2023-04-02T07:14:04.554Z,997.00
2023-04-02T07:15:04.604Z,999.00
2023-04-02T07:16:04.699Z,1001.00
2023-04-02T07:17:04.704Z,1002.00
2023-04-02T07:18:04.788Z,1001.00
2023-04-02T07:19:04.805Z,1000.00
2023-04-02T07:20:04.862Z,1000.00
2023-04-02T07:21:04.920Z,1001.00
2023-04-02T07:22:04.966Z,997.00
2023-04-02T07:23:05.025Z,998.00
2023-04-02T07:24:05.071Z,1000.00
2023-04-02T07:25:05.114Z,1000.00
2023-04-02T07:26:05.156Z,996.00
2023-04-02T07:27:05.201Z,996.00
2023-04-02T07:28:05.274Z,992.00
2023-04-02T07:29:05.321Z,988.00
2023-04-02T07:30:05.360Z,989.00
2023-04-02T07:31:05.434Z,989.00
2023-04-02T07:32:05.436Z,989.00
2023-04-02T07:33:05.534Z,989.00
2023-04-02T07:34:05.576Z,991.00
2023-04-02T07:35:05.595Z,994.00
2023-04-02T07:36:05.649Z,995.00
2023-04-02T07:37:05.685Z,993.00
2023-04-02T07:38:05.739Z,993.00
2023-04-02T07:39:05.788Z,988.00
2023-04-02T07:40:05.841Z,992.00
2023-04-02T07:41:05.874Z,995.00
2023-04-02T07:42:05.942Z,995.00
2023-04-02T07:43:05.980Z,997.00
2023-04-02T07:44:06.022Z,995.00
2023-04-02T07:45:06.254Z,999.00
2023-04-02T07:46:06.130Z,995.00
2023-04-02T07:47:06.217Z,991.00
2023-04-02T07:48:06.260Z,992.00
2023-04-02T07:49:06.241Z,990.00
2023-04-02T07:50:06.278Z,992.00
2023-04-02T07:51:06.325Z,989.00
2023-04-02T07:52:06.379Z,987.00
2023-04-02T07:53:06.408Z,993.00
2023-04-02T07:54:06.460Z,992.00
2023-04-02T07:55:06.489Z,992.00
2023-04-02T07:56:06.536Z,990.00
2023-04-02T07:57:06.651Z,990.00
2023-04-02T07:58:06.627Z,990.00
2023-04-02T07:59:06.729Z,990.00
2023-04-02T08:00:06.711Z,988.00
2023-04-02T08:01:06.741Z,988.00
2023-04-02T08:02:06.845Z,986.00
2023-04-02T08:03:06.940Z,988.00
2023-04-02T08:04:06.905Z,993.00
2023-04-02T08:05:06.926Z,991.00
2023-04-02T08:06:06.955Z,989.00
2023-04-02T08:07:07.014Z,989.00
2023-04-02T08:08:07.037Z,987.00
2023-04-02T08:09:07.076Z,985.00
2023-04-02T08:10:07.106Z,982.00
2023-04-02T08:11:07.148Z,984.00
2023-04-02T08:12:07.183Z,989.00
2023-04-02T08:13:07.224Z,989.00
2023-04-02T08:14:07.270Z,992.00
2023-04-02T08:15:07.311Z,993.00
2023-04-02T08:16:07.382Z,993.00
2023-04-02T08:17:07.382Z,987.00
2023-04-02T08:18:07.480Z,990.00
2023-04-02T08:19:07.473Z,991.00
2023-04-02T08:20:07.547Z,995.00
2023-04-02T08:21:07.570Z,992.00
2023-04-02T08:22:07.613Z,992.00
2023-04-02T08:23:07.654Z,992.00
2023-04-02T08:24:07.713Z,990.00
2023-04-02T08:25:07.760Z,989.00
2023-04-02T08:26:07.796Z,989.00
2023-04-02T08:27:07.826Z,983.00
2023-04-02T08:28:07.871Z,980.00
2023-04-02T08:29:07.936Z,981.00
2023-04-02T08:30:07.952Z,979.00
2023-04-02T08:31:08.081Z,980.00
2023-04-02T08:32:08.030Z,982.00
2023-04-02T08:33:08.122Z,983.00
2023-04-02T08:34:08.134Z,985.00
2023-04-02T08:35:08.182Z,988.00
2023-04-02T08:36:08.247Z,987.00
2023-04-02T08:37:08.253Z,986.00
2023-04-02T08:38:08.298Z,983.00
2023-04-02T08:39:08.349Z,983.00
2023-04-02T08:40:08.394Z,984.00
2023-04-02T08:41:08.424Z,990.00
2023-04-02T08:42:08.475Z,989.00
2023-04-02T08:43:08.523Z,982.00
2023-04-02T08:44:08.550Z,982.00
2023-04-02T08:45:23.010Z,984.00
2023-04-02T08:46:09.685Z,992.00
2023-04-02T08:47:08.571Z,986.00
2023-04-02T08:48:08.586Z,983.00
2023-04-02T08:49:08.572Z,995.00
2023-04-02T08:50:08.567Z,992.00
2023-04-02T08:51:08.572Z,989.00
2023-04-02T08:52:08.548Z,983.00
2023-04-02T08:53:08.550Z,982.00
2023-04-02T08:54:08.559Z,983.00
2023-04-02T08:55:08.558Z,986.00
2023-04-02T08:56:08.620Z,988.00
2023-04-02T08:57:08.606Z,984.00
2023-04-02T08:58:08.570Z,984.00
2023-04-02T08:59:08.607Z,984.00
2023-04-02T09:00:08.646Z,988.00
2023-04-02T09:01:08.746Z,986.00
2023-04-02T09:02:08.727Z,983.00
2023-04-02T09:03:08.797Z,980.00
2023-04-02T09:04:08.817Z,979.00
2023-04-02T09:05:08.903Z,982.00
2023-04-02T09:06:08.896Z,978.00
2023-04-02T09:07:08.944Z,978.00
2023-04-02T09:08:09.015Z,980.00
2023-04-02T09:09:09.039Z,982.00
2023-04-02T09:10:09.076Z,983.00
2023-04-02T09:11:09.136Z,981.00
2023-04-02T09:12:09.165Z,982.00
2023-04-02T09:13:09.215Z,980.00
2023-04-02T09:14:09.246Z,983.00
2023-04-02T09:15:09.292Z,987.00
2023-04-02T09:16:09.413Z,984.00
2023-04-02T09:17:09.370Z,975.00
2023-04-02T09:18:09.426Z,971.00
2023-04-02T09:19:09.450Z,968.00
2023-04-02T09:20:09.484Z,963.00
2023-04-02T09:21:09.567Z,965.00
2023-04-02T09:22:09.596Z,970.00
2023-04-02T09:23:09.630Z,972.00
2023-04-02T09:24:09.646Z,967.00
2023-04-02T09:25:09.702Z,970.00
2023-04-02T09:26:09.743Z,972.00
2023-04-02T09:27:09.782Z,968.00
2023-04-02T09:28:09.822Z,965.00
2023-04-02T09:29:09.858Z,962.00
2023-04-02T09:30:09.900Z,959.00
2023-04-02T09:31:09.948Z,961.00
2023-04-02T09:32:09.970Z,960.00
2023-04-02T09:33:10.117Z,959.00
2023-04-02T09:34:10.022Z,963.00
2023-04-02T09:35:22.432Z,962.00
2023-04-02T09:36:11.061Z,964.00
2023-04-02T09:37:10.035Z,966.00
2023-04-02T09:38:10.056Z,964.00
2023-04-02T09:39:10.013Z,964.00
2023-04-02T09:40:10.011Z,967.00
2023-04-02T09:41:10.015Z,969.00
2023-04-02T09:42:10.009Z,972.00
2023-04-02T09:43:09.999Z,969.00
2023-04-02T09:44:09.993Z,969.00
2023-04-02T09:45:09.995Z,971.00
2023-04-02T09:46:10.007Z,970.00
2023-04-02T09:47:09.992Z,972.00
2023-04-02T09:48:09.998Z,973.00
2023-04-02T09:49:09.968Z,974.00
2023-04-02T09:50:09.978Z,973.00
2023-04-02T09:51:09.993Z,967.00
2023-04-02T09:52:10.021Z,965.00
2023-04-02T09:53:10.067Z,968.00
2023-04-02T09:54:10.097Z,965.00
2023-04-02T09:55:10.133Z,961.00
2023-04-02T09:56:10.138Z,957.00
2023-04-02T09:57:10.198Z,960.00
2023-04-02T09:58:10.214Z,959.00
2023-04-02T09:59:10.243Z,959.00
2023-04-02T10:00:18.327Z,960.00
2023-04-02T10:01:11.288Z,960.00
2023-04-02T10:02:10.249Z,959.00
2023-04-02T10:03:10.249Z,952.00
2023-04-02T10:04:10.272Z,952.00
2023-04-02T10:05:10.225Z,954.00
2023-04-02T10:06:10.239Z,956.00
2023-04-02T10:07:10.232Z,954.00
2023-04-02T10:08:10.217Z,950.00
2023-04-02T10:09:10.209Z,949.00
2023-04-02T10:10:10.192Z,947.00
2023-04-02T10:11:10.184Z,946.00
2023-04-02T10:12:10.156Z,946.00
2023-04-02T10:13:10.157Z,946.00
2023-04-02T10:14:10.140Z,944.00
2023-04-02T10:15:10.154Z,945.00
2023-04-02T10:16:10.235Z,945.00
2023-04-02T10:17:10.248Z,943.00
2023-04-02T10:18:10.242Z,942.00
2023-04-02T10:19:10.254Z,946.00
2023-04-02T10:20:10.268Z,945.00
2023-04-02T10:21:10.296Z,946.00
2023-04-02T10:22:10.316Z,945.00
2023-04-02T10:23:10.342Z,944.00
2023-04-02T10:24:10.383Z,944.00
2023-04-02T10:25:10.400Z,943.00
2023-04-02T10:26:10.429Z,947.00
2023-04-02T10:27:10.454Z,952.00
2023-04-02T10:28:10.478Z,949.00
2023-04-02T10:29:10.546Z,947.00
2023-04-02T10:30:10.552Z,950.00
2023-04-02T10:31:10.583Z,950.00
2023-04-02T10:32:10.589Z,951.00
2023-04-02T10:33:10.626Z,948.00
2023-04-02T10:34:10.629Z,952.00
2023-04-02T10:35:10.672Z,954.00
2023-04-02T10:36:10.713Z,953.00
2023-04-02T10:37:10.714Z,950.00
2023-04-02T10:38:10.741Z,949.00
2023-04-02T10:39:10.768Z,945.00
2023-04-02T10:40:10.800Z,948.00
2023-04-02T10:41:10.803Z,943.00
2023-04-02T10:42:10.825Z,943.00
2023-04-02T10:43:10.869Z,940.00
2023-04-02T10:44:19.522Z,942.00
2023-04-02T10:45:11.873Z,942.00
2023-04-02T10:46:10.874Z,942.00
2023-04-02T10:47:10.858Z,945.00
2023-04-02T10:48:10.897Z,946.00
2023-04-02T10:49:10.854Z,945.00
2023-04-02T10:50:10.860Z,940.00
2023-04-02T10:51:10.855Z,942.00
2023-04-02T10:52:10.817Z,941.00
2023-04-02T10:53:10.807Z,937.00
2023-04-02T10:54:10.800Z,940.00
2023-04-02T10:55:10.799Z,938.00
2023-04-02T10:56:10.790Z,941.00
2023-04-02T10:57:10.871Z,945.00
2023-04-02T10:58:10.769Z,944.00
2023-04-02T10:59:10.770Z,945.00
2023-04-02T11:00:10.789Z,945.00
2023-04-02T11:01:10.751Z,941.00
2023-04-02T11:02:10.744Z,941.00
2023-04-02T11:03:10.786Z,943.00
2023-04-02T11:04:11.223Z,941.00
2023-04-02T11:05:10.830Z,940.00
2023-04-02T11:06:12.028Z,942.00
2023-04-02T11:07:14.885Z,943.00
2023-04-02T11:08:10.846Z,948.00
2023-04-02T11:09:10.841Z,945.00
2023-04-02T11:10:10.862Z,939.00
2023-04-02T11:11:10.808Z,942.00
2023-04-02T11:12:10.777Z,947.00
2023-04-02T11:13:10.762Z,954.00
2023-04-02T11:14:10.769Z,949.00
2023-04-02T11:15:10.746Z,951.00
2023-04-02T11:16:10.764Z,948.00
2023-04-02T11:17:10.716Z,947.00
2023-04-02T11:18:10.704Z,946.00
2023-04-02T11:19:10.698Z,945.00
2023-04-02T11:20:10.719Z,946.00
2023-04-02T11:21:10.694Z,947.00
2023-04-02T11:22:10.669Z,946.00
2023-04-02T11:23:10.681Z,944.00
2023-04-02T11:24:10.648Z,947.00
2023-04-02T11:25:10.649Z,944.00
2023-04-02T11:26:10.632Z,946.00
2023-04-02T11:27:10.609Z,947.00
2023-04-02T11:28:10.595Z,946.00
2023-04-02T11:29:10.579Z,943.00
2023-04-02T11:30:10.622Z,947.00
2023-04-02T11:31:10.714Z,947.00
2023-04-02T11:32:10.545Z,945.00
2023-04-02T11:33:10.556Z,943.00
2023-04-02T11:34:10.507Z,940.00
2023-04-02T11:35:10.496Z,937.00
2023-04-02T11:36:10.508Z,937.00
2023-04-02T11:37:10.546Z,934.00
2023-04-02T11:38:10.444Z,934.00
2023-04-02T11:39:17.065Z,931.00
2023-04-02T11:40:11.427Z,935.00
2023-04-02T11:41:10.394Z,939.00
2023-04-02T11:42:10.377Z,944.00
2023-04-02T11:43:10.363Z,942.00
2023-04-02T11:44:10.369Z,943.00
2023-04-02T11:45:10.351Z,940.00
2023-04-02T11:46:10.343Z,939.00
2023-04-02T11:47:10.330Z,939.00
2023-04-02T11:48:10.324Z,937.00
2023-04-02T11:49:10.304Z,937.00
2023-04-02T11:50:10.377Z,935.00
2023-04-02T11:51:10.289Z,937.00
2023-04-02T11:52:12.671Z,938.00
2023-04-02T11:53:10.483Z,934.00
2023-04-02T11:54:10.487Z,936.00
2023-04-02T11:55:10.511Z,932.00
2023-04-02T11:56:10.525Z,929.00
2023-04-02T11:57:10.604Z,931.00
2023-04-02T11:58:10.547Z,934.00
2023-04-02T11:59:10.595Z,934.00
2023-04-02T12:00:10.588Z,943.00
2023-04-02T12:01:10.584Z,936.00
2023-04-02T12:02:10.664Z,936.00
2023-04-02T12:03:10.627Z,937.00
2023-04-02T12:04:10.632Z,933.00
2023-04-02T12:05:10.701Z,933.00
2023-04-02T12:06:10.678Z,934.00
2023-04-02T12:07:10.737Z,936.00
2023-04-02T12:08:10.693Z,930.00
2023-04-02T12:09:10.691Z,934.00
2023-04-02T12:10:10.702Z,929.00
2023-04-02T12:11:10.727Z,929.00
2023-04-02T12:12:10.741Z,929.00
2023-04-02T12:13:10.757Z,929.00
2023-04-02T12:14:10.775Z,938.00
2023-04-02T12:15:10.782Z,934.00
2023-04-02T12:16:10.792Z,932.00